createdAt,value
2023-02-22T00:01:36.078Z,3.03
2023-02-22T00:04:07.437Z,3.47
2023-02-22T00:06:34.238Z,3.20
2023-02-22T00:09:04.224Z,3.27
2023-02-22T00:11:32.581Z,3.07
2023-02-22T00:13:59.079Z,3.17
2023-02-22T00:16:27.088Z,3.60
2023-02-22T00:18:54.190Z,3.00
2023-02-22T00:21:21.764Z,3.00
2023-02-22T00:23:50.424Z,2.80
2023-02-22T00:26:19.732Z,3.00
2023-02-22T00:28:52.795Z,3.00
2023-02-22T00:31:20.304Z,3.07
2023-02-22T00:33:49.436Z,3.27
2023-02-22T00:36:17.435Z,3.20
2023-02-22T00:38:49.216Z,3.20
2023-02-22T00:41:16.623Z,3.30
2023-02-22T00:43:43.489Z,2.97
2023-02-22T00:46:14.181Z,3.10
2023-02-22T00:48:41.076Z,3.03
2023-02-22T00:51:07.752Z,2.70
2023-02-22T00:53:34.413Z,3.00
2023-02-22T00:56:02.384Z,3.47
2023-02-22T00:58:29.132Z,3.27
2023-02-22T01:00:58.236Z,4.13
2023-02-22T01:03:24.828Z,6.27
2023-02-22T01:05:51.380Z,8.43
2023-02-22T01:08:18.746Z,7.30
2023-02-22T01:10:46.602Z,5.67
2023-02-22T01:13:14.145Z,5.50
2023-02-22T01:15:45.209Z,5.27
2023-02-22T01:18:13.114Z,5.70
2023-02-22T01:20:40.112Z,5.37
2023-02-22T01:23:08.126Z,5.80
2023-02-22T01:25:37.278Z,4.63
2023-02-22T01:28:06.531Z,5.20
2023-02-22T01:30:35.541Z,4.93
2023-02-22T01:33:05.080Z,3.80
2023-02-22T01:35:35.382Z,3.53
2023-02-22T01:38:02.294Z,4.13
2023-02-22T01:40:34.029Z,3.80
2023-02-22T01:43:04.249Z,3.10
2023-02-22T01:45:30.921Z,3.70
2023-02-22T01:48:00.628Z,3.20
2023-02-22T01:50:28.103Z,3.90
2023-02-22T01:52:55.300Z,3.80
2023-02-22T01:55:22.528Z,4.13
2023-02-22T01:57:49.650Z,3.73
2023-02-22T02:00:21.642Z,3.80
2023-02-22T02:02:54.842Z,3.37
2023-02-22T02:05:25.053Z,4.33
2023-02-22T02:07:54.139Z,4.50
2023-02-22T02:10:21.633Z,4.60
2023-02-22T02:12:50.972Z,4.37
2023-02-22T02:15:31.218Z,4.33
2023-02-22T02:18:01.597Z,4.17
2023-02-22T02:20:51.190Z,4.33
2023-02-22T02:24:12.475Z,4.00
2023-02-22T02:27:03.199Z,4.20
2023-02-22T02:30:21.083Z,4.50
2023-02-22T02:32:55.281Z,4.30
2023-02-22T02:35:40.036Z,4.20
2023-02-22T02:38:32.758Z,4.57
2023-02-22T02:41:08.610Z,3.90
2023-02-22T02:43:48.080Z,3.63
2023-02-22T02:46:26.408Z,2.83
2023-02-22T02:48:58.614Z,2.73
2023-02-22T02:51:30.511Z,3.10
2023-02-22T02:54:02.015Z,3.23
2023-02-22T02:56:29.089Z,3.23
2023-02-22T02:58:55.708Z,2.70
2023-02-22T03:01:57.857Z,2.60
2023-02-22T03:04:56.714Z,2.80
2023-02-22T03:07:33.201Z,2.53
2023-02-22T03:10:08.938Z,2.67
2023-02-22T03:12:45.458Z,2.70
2023-02-22T03:15:40.213Z,2.77
2023-02-22T03:18:18.559Z,3.30
2023-02-22T03:20:55.800Z,3.20
2023-02-22T03:23:29.403Z,2.50
2023-02-22T03:26:12.183Z,3.07
2023-02-22T03:28:45.208Z,3.00
2023-02-22T03:31:17.925Z,3.40
2023-02-22T03:33:56.862Z,3.83
2023-02-22T03:36:29.282Z,3.70
2023-02-22T03:38:59.900Z,4.10
2023-02-22T03:41:28.666Z,3.80
2023-02-22T03:44:05.751Z,4.40
2023-02-22T03:46:35.107Z,4.37
2023-02-22T03:49:11.905Z,3.57
2023-02-22T03:51:41.165Z,3.30
2023-02-22T03:54:07.976Z,3.90
2023-02-22T03:56:47.647Z,3.50
2023-02-22T03:59:20.173Z,3.47
2023-02-22T04:01:47.840Z,3.50
2023-02-22T04:04:15.171Z,3.50
2023-02-22T04:06:42.137Z,3.63
2023-02-22T04:09:09.213Z,3.57
2023-02-22T04:11:35.984Z,3.70
2023-02-22T04:14:03.242Z,4.00
2023-02-22T04:16:30.049Z,3.73
2023-02-22T04:18:56.654Z,3.60
2023-02-22T04:21:23.499Z,4.10
2023-02-22T04:23:52.644Z,4.40
2023-02-22T04:26:20.016Z,3.93
2023-02-22T04:28:52.119Z,3.23
2023-02-22T04:31:23.855Z,3.63
2023-02-22T04:33:53.024Z,3.10
2023-02-22T04:36:27.101Z,2.93
2023-02-22T04:38:54.225Z,2.77
2023-02-22T04:41:21.237Z,3.23
2023-02-22T04:43:48.021Z,3.10
2023-02-22T04:46:18.191Z,3.47
2023-02-22T04:48:44.900Z,3.17
2023-02-22T04:51:13.257Z,3.47
2023-02-22T04:53:53.212Z,3.47
2023-02-22T04:56:20.598Z,4.00
2023-02-22T04:58:47.878Z,3.97
2023-02-22T05:01:16.746Z,3.63
2023-02-22T05:03:45.876Z,3.00
2023-02-22T05:06:12.731Z,2.47
2023-02-22T05:08:39.464Z,3.80
2023-02-22T05:11:06.211Z,4.00
2023-02-22T05:13:33.343Z,3.40
2023-02-22T05:16:01.767Z,3.33
2023-02-22T05:18:28.569Z,3.50
2023-02-22T05:20:55.377Z,3.60
2023-02-22T05:23:21.866Z,3.87
2023-02-22T05:25:48.469Z,3.50
2023-02-22T05:28:16.958Z,3.43
2023-02-22T05:30:45.980Z,3.60
2023-02-22T05:33:13.289Z,3.20
2023-02-22T05:35:40.138Z,3.23
2023-02-22T05:38:07.714Z,3.10
2023-02-22T05:40:35.587Z,3.77
2023-02-22T05:43:02.860Z,3.87
2023-02-22T05:45:30.216Z,3.90
2023-02-22T05:47:57.774Z,4.30
2023-02-22T05:50:25.054Z,4.27
2023-02-22T05:52:52.253Z,4.13
2023-02-22T05:55:21.289Z,3.67
2023-02-22T05:57:52.888Z,3.33
2023-02-22T06:00:28.986Z,3.27
2023-02-22T06:03:01.548Z,4.40
2023-02-22T06:05:31.218Z,4.37
2023-02-22T06:07:59.091Z,3.87
2023-02-22T06:10:28.690Z,3.40
2023-02-22T06:12:59.301Z,3.43
2023-02-22T06:15:27.523Z,3.50
2023-02-22T06:17:55.887Z,3.00
2023-02-22T06:20:25.118Z,3.17
2023-02-22T06:22:53.236Z,3.10
2023-02-22T06:25:22.422Z,2.80
2023-02-22T06:27:49.285Z,2.73
2023-02-22T06:30:17.913Z,2.37
2023-02-22T06:32:44.832Z,2.30
2023-02-22T06:35:11.529Z,2.70
2023-02-22T06:37:39.987Z,2.70
2023-02-22T06:40:06.650Z,2.50
2023-02-22T06:42:33.584Z,2.80
2023-02-22T06:45:00.498Z,2.77
2023-02-22T06:47:28.382Z,2.90
2023-02-22T06:50:01.270Z,3.23
2023-02-22T06:52:31.240Z,3.47
2023-02-22T06:54:58.811Z,2.93
2023-02-22T06:57:25.651Z,2.97
2023-02-22T06:59:52.326Z,2.57
2023-02-22T07:02:18.794Z,2.50
2023-02-22T07:04:48.303Z,2.63
2023-02-22T07:07:15.621Z,2.80
2023-02-22T07:09:44.222Z,3.00
2023-02-22T07:12:12.603Z,3.20
2023-02-22T07:14:39.496Z,3.30
2023-02-22T07:17:09.729Z,3.20
2023-02-22T07:19:38.564Z,3.23
2023-02-22T07:22:06.652Z,2.73
2023-02-22T07:24:35.029Z,2.90
2023-02-22T07:27:02.950Z,2.97
2023-02-22T07:29:32.931Z,2.93
2023-02-22T07:31:59.761Z,3.00
2023-02-22T07:34:28.630Z,3.00
2023-02-22T07:36:58.144Z,2.83
2023-02-22T07:39:24.984Z,2.50
2023-02-22T07:41:54.602Z,2.73
2023-02-22T07:44:23.506Z,2.77
2023-02-22T07:46:50.616Z,2.83
2023-02-22T07:49:21.042Z,3.07
2023-02-22T07:51:47.817Z,3.20
2023-02-22T07:54:14.661Z,3.10
2023-02-22T07:56:49.531Z,3.63
2023-02-22T07:59:16.732Z,3.10
2023-02-22T08:01:44.519Z,3.03
2023-02-22T08:04:12.520Z,3.67
2023-02-22T08:06:39.318Z,4.13
2023-02-22T08:09:05.946Z,4.13
2023-02-22T08:11:32.722Z,4.23
2023-02-22T08:13:59.646Z,4.23
2023-02-22T08:16:26.591Z,3.63
2023-02-22T08:18:53.116Z,3.73
2023-02-22T08:21:21.187Z,3.97
2023-02-22T08:23:56.390Z,3.50
2023-02-22T08:26:24.011Z,4.10
2023-02-22T08:28:50.711Z,3.77
2023-02-22T08:31:19.324Z,3.97
2023-02-22T08:33:48.945Z,4.73
2023-02-22T08:36:16.192Z,4.63
2023-02-22T08:38:43.001Z,4.90
2023-02-22T08:41:09.476Z,5.00
2023-02-22T08:43:36.636Z,5.20
2023-02-22T08:46:04.724Z,5.07
2023-02-22T08:48:31.729Z,5.00
2023-02-22T08:50:58.530Z,4.40
2023-02-22T08:53:26.216Z,4.43
2023-02-22T08:55:53.118Z,4.70
2023-02-22T08:58:22.028Z,4.50
2023-02-22T09:00:49.356Z,4.87
2023-02-22T09:03:16.209Z,4.67
2023-02-22T09:05:43.695Z,5.30
2023-02-22T09:08:11.581Z,4.50
2023-02-22T09:10:38.798Z,4.70
2023-02-22T09:13:06.505Z,4.50
2023-02-22T09:15:36.454Z,5.20
2023-02-22T09:18:12.325Z,5.00
2023-02-22T09:20:39.352Z,4.77
2023-02-22T09:23:10.207Z,4.03
2023-02-22T09:25:39.792Z,4.00
2023-02-22T09:28:07.783Z,4.17
2023-02-22T09:30:36.221Z,4.03
2023-02-22T09:33:15.684Z,4.13
2023-02-22T09:35:48.250Z,4.30
2023-02-22T09:38:20.632Z,4.90
2023-02-22T09:40:50.860Z,4.60
2023-02-22T09:43:21.562Z,5.47
2023-02-22T09:46:00.896Z,5.60
2023-02-22T09:48:33.428Z,4.90
2023-02-22T09:51:03.631Z,5.40
2023-02-22T09:53:37.143Z,6.03
2023-02-22T09:56:24.693Z,6.70
2023-02-22T09:58:55.270Z,8.17
2023-02-22T10:01:33.125Z,8.33
2023-02-22T10:04:11.276Z,9.70
2023-02-22T10:06:42.960Z,9.23
2023-02-22T10:09:11.449Z,8.43
2023-02-22T10:12:00.243Z,8.00
2023-02-22T10:14:54.670Z,9.63
2023-02-22T10:17:24.494Z,10.30
2023-02-22T10:19:55.234Z,11.13
2023-02-22T10:22:52.970Z,11.90
2023-02-22T10:25:24.206Z,12.80
2023-02-22T10:28:04.055Z,11.60
2023-02-22T10:30:42.528Z,11.50
2023-02-22T10:33:17.600Z,13.33
2023-02-22T10:35:49.295Z,13.00
2023-02-22T10:38:24.628Z,11.80
2023-02-22T10:41:04.656Z,12.37
2023-02-22T10:43:31.616Z,13.00
2023-02-22T10:46:03.270Z,11.77
2023-02-22T10:48:35.716Z,12.47
2023-02-22T10:51:06.362Z,12.20
2023-02-22T10:53:36.386Z,11.93
2023-02-22T10:56:15.897Z,12.00
2023-02-22T10:59:04.231Z,13.00
2023-02-22T11:01:31.087Z,11.95
2023-02-22T11:04:05.298Z,12.82
2023-02-22T11:06:35.882Z,12.07
2023-02-22T11:09:15.511Z,11.90
2023-02-22T11:11:46.442Z,11.90
2023-02-22T11:14:33.401Z,11.77
2023-02-22T11:17:02.121Z,12.23
2023-02-22T11:19:31.869Z,11.83
2023-02-22T11:22:29.640Z,11.00
2023-02-22T11:25:01.079Z,11.48
2023-02-22T11:27:47.188Z,11.95
2023-02-22T11:30:27.028Z,11.63
2023-02-22T11:33:16.469Z,10.85
2023-02-22T11:35:54.220Z,10.98
2023-02-22T11:38:30.574Z,11.30
2023-02-22T11:41:07.929Z,9.98
2023-02-22T11:43:35.752Z,10.52
2023-02-22T11:46:11.452Z,10.85
2023-02-22T11:48:45.170Z,9.85
2023-02-22T11:51:35.516Z,10.52
2023-02-22T11:54:07.703Z,9.98
2023-02-22T11:56:48.271Z,10.20
2023-02-22T11:59:38.677Z,10.70
2023-02-22T12:02:30.884Z,10.13
2023-02-22T12:05:19.797Z,8.95
2023-02-22T12:08:19.296Z,9.90
2023-02-22T12:11:14.040Z,9.77
2023-02-22T12:13:54.733Z,9.57
2023-02-22T12:16:40.005Z,9.98
2023-02-22T12:19:19.007Z,10.63
2023-02-22T12:21:53.047Z,10.48
2023-02-22T12:24:24.778Z,9.95
2023-02-22T12:27:02.085Z,10.23
2023-02-22T12:30:16.468Z,9.02
2023-02-22T12:32:52.218Z,11.07
2023-02-22T12:35:24.464Z,11.10
2023-02-22T12:38:14.440Z,10.98
2023-02-22T12:41:14.070Z,16.00
2023-02-22T12:43:57.597Z,14.30
2023-02-22T12:46:38.639Z,11.82
2023-02-22T12:49:05.607Z,11.02
2023-02-22T12:52:04.871Z,12.25
2023-02-22T12:54:45.421Z,11.00
2023-02-22T12:57:28.592Z,11.40
2023-02-22T13:00:00.368Z,11.43
2023-02-22T13:02:29.460Z,11.60
2023-02-22T13:04:56.193Z,11.80
2023-02-22T13:07:44.765Z,10.75
2023-02-22T13:10:35.889Z,10.98
2023-02-22T13:13:24.165Z,11.05
2023-02-22T13:16:43.219Z,10.45
2023-02-22T13:19:58.075Z,9.10
2023-02-22T13:22:41.643Z,9.60
2023-02-22T13:25:22.229Z,9.98
2023-02-22T13:28:22.561Z,10.38
2023-02-22T13:30:57.467Z,9.30
2023-02-22T13:33:56.054Z,8.65
2023-02-22T13:36:49.503Z,8.77
2023-02-22T13:39:55.490Z,9.93
2023-02-22T13:42:37.649Z,9.25
2023-02-22T13:45:29.407Z,9.80
2023-02-22T13:48:10.879Z,8.65
2023-02-22T13:51:06.651Z,9.68
2023-02-22T13:53:57.218Z,10.73
2023-02-22T13:56:27.847Z,10.85
2023-02-22T13:58:59.528Z,10.57
2023-02-22T14:01:51.279Z,9.88
2023-02-22T14:04:27.409Z,10.38
2023-02-22T14:07:32.265Z,10.85
2023-02-22T14:10:01.791Z,10.32
2023-02-22T14:12:33.418Z,10.23
2023-02-22T14:15:28.648Z,9.98
2023-02-22T14:18:02.367Z,9.00
2023-02-22T14:20:36.783Z,10.45
2023-02-22T14:23:43.188Z,9.48
2023-02-22T14:26:20.520Z,11.18
2023-02-22T14:28:53.063Z,11.00
2023-02-22T14:31:36.175Z,10.55
2023-02-22T14:34:18.005Z,9.15
2023-02-22T14:37:07.727Z,9.65
2023-02-22T14:40:12.723Z,9.63
2023-02-22T14:42:46.377Z,9.80
2023-02-22T14:45:21.928Z,11.48
2023-02-22T14:48:28.024Z,10.30
2023-02-22T14:51:31.619Z,10.82
2023-02-22T14:54:08.998Z,11.50
2023-02-22T14:56:45.247Z,11.52
2023-02-22T14:59:21.559Z,11.52
2023-02-22T15:02:05.737Z,12.45
2023-02-22T15:04:37.886Z,13.32
2023-02-22T15:07:28.120Z,13.57
2023-02-22T15:10:30.362Z,15.75
2023-02-22T15:13:09.862Z,14.43
2023-02-22T15:15:49.188Z,14.07
2023-02-22T15:18:27.147Z,13.57
2023-02-22T15:20:58.167Z,12.82
2023-02-22T15:23:30.343Z,13.40
2023-02-22T15:25:58.243Z,13.55
2023-02-22T15:28:28.989Z,13.20
2023-02-22T15:31:23.112Z,13.60
2023-02-22T15:33:52.991Z,15.20
2023-02-22T15:36:21.145Z,17.73
2023-02-22T15:38:50.896Z,14.93
2023-02-22T15:41:27.921Z,13.80
2023-02-22T15:44:03.425Z,17.25
2023-02-22T15:46:32.815Z,15.67
2023-02-22T15:49:12.316Z,15.90
2023-02-22T15:51:42.793Z,14.00
2023-02-22T15:54:13.298Z,18.03
2023-02-22T15:56:56.380Z,19.52
2023-02-22T15:59:30.348Z,17.70
2023-02-22T16:01:59.737Z,19.17
2023-02-22T16:04:30.147Z,17.37
2023-02-22T16:07:09.465Z,18.80
2023-02-22T16:09:37.540Z,17.47
2023-02-22T16:12:25.365Z,17.00
2023-02-22T16:14:54.858Z,16.77
2023-02-22T16:17:24.863Z,15.43
2023-02-22T16:19:52.760Z,19.63
2023-02-22T16:22:28.606Z,16.90
2023-02-22T16:25:16.854Z,17.33
2023-02-22T16:27:59.304Z,16.87
2023-02-22T16:30:35.029Z,19.17
2023-02-22T16:33:06.231Z,17.40
2023-02-22T16:35:35.635Z,19.50
2023-02-22T16:38:08.042Z,20.80
2023-02-22T16:40:40.113Z,18.10
2023-02-22T16:43:11.721Z,17.90
2023-02-22T16:45:40.164Z,20.10
2023-02-22T16:48:19.683Z,18.50
2023-02-22T16:50:48.827Z,19.60
2023-02-22T16:53:23.634Z,18.97
2023-02-22T16:55:58.058Z,18.43
2023-02-22T16:58:29.821Z,17.43
2023-02-22T17:00:57.477Z,17.90
2023-02-22T17:03:26.006Z,17.17
2023-02-22T17:05:53.186Z,18.20
2023-02-22T17:08:19.775Z,19.77
2023-02-22T17:10:46.713Z,19.43
2023-02-22T17:13:23.010Z,19.70
2023-02-22T17:15:51.958Z,19.00
2023-02-22T17:18:23.254Z,20.17
2023-02-22T17:20:53.794Z,20.83
2023-02-22T17:23:21.391Z,21.07
2023-02-22T17:25:57.253Z,21.70
2023-02-22T17:28:25.567Z,23.27
2023-02-22T17:30:54.512Z,24.13
2023-02-22T17:33:29.474Z,23.90
2023-02-22T17:35:58.052Z,22.77
2023-02-22T17:38:29.138Z,25.43
2023-02-22T17:40:57.485Z,23.57
2023-02-22T17:43:27.934Z,22.73
2023-02-22T17:45:55.600Z,21.97
2023-02-22T17:48:24.235Z,21.03
2023-02-22T17:50:51.606Z,22.13
2023-02-22T17:53:23.072Z,22.80
2023-02-22T17:55:53.953Z,32.23
2023-02-22T17:58:21.060Z,25.53
2023-02-22T18:00:49.545Z,24.23
2023-02-22T18:03:26.095Z,24.07
2023-02-22T18:05:57.762Z,33.60
2023-02-22T18:08:26.513Z,25.73
2023-02-22T18:10:56.534Z,26.07
2023-02-22T18:13:28.496Z,23.50
2023-02-22T18:16:00.299Z,23.73
2023-02-22T18:18:28.122Z,23.07
2023-02-22T18:20:59.399Z,19.27
2023-02-22T18:23:29.760Z,15.23
2023-02-22T18:26:10.273Z,15.50
2023-02-22T18:28:40.380Z,15.87
2023-02-22T18:31:16.791Z,16.60
2023-02-22T18:33:45.741Z,16.03
2023-02-22T18:36:13.763Z,19.13
2023-02-22T18:38:47.767Z,20.87
2023-02-22T18:41:17.781Z,19.57
2023-02-22T18:43:52.303Z,20.40
2023-02-22T18:46:22.099Z,19.60
2023-02-22T18:48:54.819Z,20.73
2023-02-22T18:51:22.379Z,20.73
2023-02-22T18:53:50.163Z,24.50
2023-02-22T18:56:22.725Z,22.73
2023-02-22T18:59:01.226Z,23.17
2023-02-22T19:01:28.734Z,22.03
2023-02-22T19:03:56.793Z,21.90
2023-02-22T19:06:24.520Z,22.00
2023-02-22T19:08:51.542Z,22.43
2023-02-22T19:11:21.962Z,21.27
2023-02-22T19:13:51.206Z,23.47
2023-02-22T19:16:21.788Z,22.90
2023-02-22T19:18:52.807Z,21.23
2023-02-22T19:21:20.662Z,21.90
2023-02-22T19:23:48.569Z,21.97
2023-02-22T19:26:24.284Z,22.77
2023-02-22T19:28:54.720Z,21.87
2023-02-22T19:31:26.651Z,25.53
2023-02-22T19:33:53.771Z,22.47
2023-02-22T19:36:25.483Z,23.87
2023-02-22T19:38:52.378Z,24.27
2023-02-22T19:41:23.605Z,21.37
2023-02-22T19:43:52.690Z,23.27
2023-02-22T19:46:21.398Z,22.33
2023-02-22T19:48:49.300Z,21.60
2023-02-22T19:51:20.694Z,23.40
2023-02-22T19:53:47.433Z,22.67
2023-02-22T19:56:29.848Z,23.07
2023-02-22T19:59:14.410Z,23.47
2023-02-22T20:01:44.305Z,23.93
2023-02-22T20:04:21.676Z,23.07
2023-02-22T20:06:50.601Z,22.87
2023-02-22T20:09:24.385Z,24.67
2023-02-22T20:11:54.062Z,24.20
2023-02-22T20:14:23.841Z,24.03
2023-02-22T20:16:51.691Z,23.17
2023-02-22T20:19:18.465Z,23.13
2023-02-22T20:21:47.201Z,22.07
2023-02-22T20:24:18.394Z,23.80
2023-02-22T20:26:46.371Z,22.97
2023-02-22T20:29:13.669Z,21.87
2023-02-22T20:31:42.185Z,23.07
2023-02-22T20:34:14.603Z,22.93
2023-02-22T20:36:41.910Z,23.50
2023-02-22T20:39:13.439Z,23.50
2023-02-22T20:41:52.591Z,21.37
2023-02-22T20:44:20.569Z,21.83
2023-02-22T20:46:50.911Z,21.63
2023-02-22T20:49:19.910Z,20.23
2023-02-22T20:51:48.015Z,20.83
2023-02-22T20:54:15.523Z,20.67
2023-02-22T20:56:44.334Z,20.20
2023-02-22T20:59:13.627Z,20.60
2023-02-22T21:01:41.560Z,20.70
2023-02-22T21:04:14.253Z,19.20
2023-02-22T21:06:42.388Z,19.90
2023-02-22T21:09:14.070Z,18.63
2023-02-22T21:11:41.938Z,19.73
2023-02-22T21:14:08.811Z,19.87
2023-02-22T21:16:38.280Z,21.93
2023-02-22T21:19:06.542Z,22.63
2023-02-22T21:21:35.512Z,18.63
2023-02-22T21:24:04.360Z,19.77
2023-02-22T21:26:33.528Z,17.93
2023-02-22T21:29:05.843Z,18.73
2023-02-22T21:31:34.999Z,19.03
2023-02-22T21:34:02.205Z,19.23
2023-02-22T21:36:29.822Z,20.50
2023-02-22T21:38:59.551Z,21.17
2023-02-22T21:41:28.948Z,18.20
2023-02-22T21:43:57.517Z,18.73
2023-02-22T21:46:26.990Z,17.97
2023-02-22T21:48:55.314Z,17.97
2023-02-22T21:51:31.345Z,17.33
2023-02-22T21:54:03.689Z,17.10
2023-02-22T21:56:34.588Z,18.00
2023-02-22T21:59:07.370Z,18.87
2023-02-22T22:01:36.789Z,17.43
2023-02-22T22:04:04.684Z,18.53
2023-02-22T22:06:34.806Z,17.57
2023-02-22T22:09:04.121Z,19.17
2023-02-22T22:11:30.832Z,18.87
2023-02-22T22:13:58.946Z,18.63
2023-02-22T22:16:28.666Z,18.80
2023-02-22T22:18:57.263Z,19.20
2023-02-22T22:21:26.851Z,19.37
2023-02-22T22:23:57.445Z,19.13
2023-02-22T22:26:25.885Z,19.20
2023-02-22T22:28:56.463Z,19.77
2023-02-22T22:31:26.782Z,19.07
2023-02-22T22:33:55.240Z,19.73
2023-02-22T22:36:24.087Z,18.60
2023-02-22T22:38:52.695Z,17.70
2023-02-22T22:41:20.854Z,18.47
2023-02-22T22:43:48.266Z,17.97
2023-02-22T22:46:16.887Z,17.83
2023-02-22T22:48:47.032Z,18.53
2023-02-22T22:51:21.062Z,19.43
2023-02-22T22:53:53.247Z,18.17
2023-02-22T22:56:26.636Z,18.97
2023-02-22T22:58:57.837Z,18.67
2023-02-22T23:01:27.427Z,18.33
2023-02-22T23:04:00.544Z,18.27
2023-02-22T23:06:34.298Z,17.73
2023-02-22T23:09:14.332Z,17.17
2023-02-22T23:11:46.381Z,18.13
2023-02-22T23:14:31.854Z,17.93
2023-02-22T23:17:03.348Z,18.80
2023-02-22T23:19:35.305Z,18.37
2023-02-22T23:22:05.528Z,18.23
2023-02-22T23:24:36.169Z,19.10
2023-02-22T23:27:07.262Z,17.87
2023-02-22T23:29:39.125Z,18.43
2023-02-22T23:32:06.420Z,18.17
2023-02-22T23:34:35.895Z,19.13
2023-02-22T23:37:03.056Z,18.37
2023-02-22T23:39:30.080Z,18.03
2023-02-22T23:42:03.307Z,18.87
2023-02-22T23:44:30.372Z,18.07
2023-02-22T23:46:56.949Z,18.13
2023-02-22T23:49:26.873Z,17.63
2023-02-22T23:51:53.851Z,17.63
2023-02-22T23:54:25.837Z,17.00
2023-02-22T23:56:58.540Z,16.10
2023-02-22T23:59:27.258Z,15.70
